Time;durP1;ratioP1;P1;durP2;ratioP2;P2;SDS_P1;SDS_P2;PMS_P1;PMS_P2;Temp;Humidity;BMP_temperature;BMP_pressure;BME280_temperature;BME280_humidity;BME280_pressure;Samples;Min_cycle;Max_cycle;Signal;HPM_P1;HPM_P2
2021/03/09 00:01:09;;;;;;;13.95;7.38;;;;;;;;;;5051907;28;20230;-70
2021/03/09 00:03:36;;;;;;;11.07;6.05;;;;;;;;;;5051128;28;20288;-70
2021/03/09 00:06:02;;;;;;;12.07;5.65;;;;;;;;;;5051083;28;20250;-72
2021/03/09 00:08:28;;;;;;;10.65;6.13;;;;;;;;;;5051465;28;20640;-69
2021/03/09 00:10:54;;;;;;;15.87;7.37;;;;;;;;;;5051576;28;20261;-71
2021/03/09 00:13:20;;;;;;;11.23;6.37;;;;;;;;;;5051566;28;20439;-71
2021/03/09 00:15:46;;;;;;;11.95;6.38;;;;;;;;;;5051488;28;20483;-71
2021/03/09 00:18:12;;;;;;;16.02;6.85;;;;;;;;;;5055493;28;20185;-72
2021/03/09 00:20:39;;;;;;;11.33;6.07;;;;;;;;;;5055910;28;20193;-72
2021/03/09 00:23:05;;;;;;;12.60;6.32;;;;;;;;;;5055167;28;20479;-71
2021/03/09 00:25:31;;;;;;;11.95;6.50;;;;;;;;;;5055395;28;20197;-71
2021/03/09 00:27:57;;;;;;;8.90;6.70;;;;;;;;;;5055132;28;20595;-71
2021/03/09 00:30:23;;;;;;;9.07;6.37;;;;;;;;;;5055404;28;20208;-71
2021/03/09 00:32:49;;;;;;;10.23;6.38;;;;;;;;;;5055335;28;20483;-72
2021/03/09 00:35:15;;;;;;;10.80;6.72;;;;;;;;;;5055094;28;20240;-70
2021/03/09 00:37:42;;;;;;;17.83;6.70;;;;;;;;;;5055414;28;20221;-72
2021/03/09 00:40:08;;;;;;;12.63;6.43;;;;;;;;;;5055279;28;20217;-71
2021/03/09 00:42:34;;;;;;;11.38;6.00;;;;;;;;;;5055213;28;20208;-71
2021/03/09 00:45:00;;;;;;;14.20;7.22;;;;;;;;;;5055898;28;20185;-70
2021/03/09 00:47:26;;;;;;;12.43;6.70;;;;;;;;;;5054890;28;20189;-70
2021/03/09 00:49:54;;;;;;;10.77;5.68;;;;;;;;;;5055344;28;20479;-71
2021/03/09 00:52:20;;;;;;;15.70;7.20;;;;;;;;;;5055137;28;20564;-71
2021/03/09 00:54:47;;;;;;;11.47;6.67;;;;;;;;;;5054843;28;20233;-70
2021/03/09 00:57:13;;;;;;;8.88;6.30;;;;;;;;;;5055050;28;20514;-70
2021/03/09 00:59:38;;;;;;;13.73;5.90;;;;;;;;;;5055582;28;20244;-71
2021/03/09 01:02:05;;;;;;;14.27;6.57;;;;;;;;;;5054978;28;21234;-71
2021/03/09 01:04:30;;;;;;;11.75;6.90;;;;;;;;;;5055557;28;21338;-70
2021/03/09 01:06:56;;;;;;;14.47;8.03;;;;;;;;;;5054980;28;20200;-69
2021/03/09 01:09:22;;;;;;;13.90;6.40;;;;;;;;;;5054567;28;20424;-72
2021/03/09 01:11:49;;;;;;;13.47;5.50;;;;;;;;;;5054453;28;20792;-71
2021/03/09 01:14:15;;;;;;;12.23;6.70;;;;;;;;;;5054711;28;20442;-70
2021/03/09 01:16:41;;;;;;;15.00;7.67;;;;;;;;;;5055404;28;20189;-69
2021/03/09 01:19:07;;;;;;;13.48;6.47;;;;;;;;;;5054893;28;20455;-71
2021/03/09 01:21:33;;;;;;;15.48;6.32;;;;;;;;;;5054568;28;20564;-71
2021/03/09 01:23:59;;;;;;;12.83;7.30;;;;;;;;;;5054355;28;20186;-71
2021/03/09 01:26:25;;;;;;;12.53;5.77;;;;;;;;;;5054809;28;20516;-71
2021/03/09 01:28:52;;;;;;;15.87;6.80;;;;;;;;;;5053600;28;20898;-71
2021/03/09 01:31:18;;;;;;;14.02;7.03;;;;;;;;;;5053987;28;20587;-73
2021/03/09 01:33:44;;;;;;;16.45;7.18;;;;;;;;;;5054524;28;20232;-72
2021/03/09 01:36:09;;;;;;;10.67;7.03;;;;;;;;;;5054033;28;20702;-71
2021/03/09 01:38:35;;;;;;;9.52;6.00;;;;;;;;;;5054488;28;20469;-70
2021/03/09 01:41:02;;;;;;;12.15;7.05;;;;;;;;;;5054576;28;20208;-72
2021/03/09 01:43:28;;;;;;;17.75;6.50;;;;;;;;;;5054368;28;20192;-70
2021/03/09 01:45:54;;;;;;;15.73;7.00;;;;;;;;;;5054283;28;20648;-71
2021/03/09 01:48:21;;;;;;;12.85;7.38;;;;;;;;;;5053777;28;20417;-70
2021/03/09 01:50:48;;;;;;;9.50;6.15;;;;;;;;;;5053830;28;20216;-70
2021/03/09 01:53:14;;;;;;;14.35;5.85;;;;;;;;;;5054306;28;20311;-72
2021/03/09 01:55:41;;;;;;;16.23;7.03;;;;;;;;;;5053636;28;20209;-70
2021/03/09 01:58:10;;;;;;;11.90;6.82;;;;;;;;;;5054162;28;20204;-71
2021/03/09 02:00:36;;;;;;;13.50;6.95;;;;;;;;;;5054005;28;20232;-71
2021/03/09 02:03:03;;;;;;;16.53;7.70;;;;;;;;;;5053981;28;20588;-72
2021/03/09 02:05:29;;;;;;;13.52;6.43;;;;;;;;;;5053695;28;20436;-71
2021/03/09 02:07:55;;;;;;;8.77;6.57;;;;;;;;;;5053659;28;20221;-71
2021/03/09 02:10:21;;;;;;;14.60;7.00;;;;;;;;;;5054073;28;20471;-72
2021/03/09 02:12:53;;;;;;;17.70;7.85;;;;;;;;;;5053665;28;20455;-69
2021/03/09 02:15:24;;;;;;;12.77;6.70;;;;;;;;;;5053802;28;20684;-70
2021/03/09 02:17:53;;;;;;;11.18;7.57;;;;;;;;;;5053446;28;20280;-71
2021/03/09 02:20:38;;;;;;;14.82;5.88;;;;;;;;;;5053431;28;20203;-71
2021/03/09 02:23:22;;;;;;;7.80;5.75;;;;;;;;;;5053507;28;20185;-71
2021/03/09 02:25:54;;;;;;;9.63;6.65;;;;;;;;;;5053330;28;20236;-71
2021/03/09 02:28:28;;;;;;;13.20;7.55;;;;;;;;;;5053486;28;20243;-70
2021/03/09 02:30:57;;;;;;;19.50;8.05;;;;;;;;;;5053532;28;20206;-70
2021/03/09 02:33:26;;;;;;;11.65;6.20;;;;;;;;;;5053502;28;20639;-71
2021/03/09 02:35:55;;;;;;;13.18;7.05;;;;;;;;;;5053443;28;21049;-71
2021/03/09 02:38:23;;;;;;;24.27;8.60;;;;;;;;;;5052946;28;20193;-72
2021/03/09 02:40:52;;;;;;;15.23;7.40;;;;;;;;;;5052101;28;20284;-71
2021/03/09 02:43:19;;;;;;;12.95;7.22;;;;;;;;;;5053128;28;20182;-71
2021/03/09 02:45:48;;;;;;;11.68;6.28;;;;;;;;;;5053199;28;20250;-72
2021/03/09 02:48:16;;;;;;;12.95;7.40;;;;;;;;;;5053235;28;20676;-72
2021/03/09 02:50:42;;;;;;;9.43;6.80;;;;;;;;;;5053241;28;20205;-71
2021/03/09 02:53:10;;;;;;;14.75;7.10;;;;;;;;;;5053103;28;20197;-71
2021/03/09 02:55:37;;;;;;;14.45;8.18;;;;;;;;;;5052714;28;20188;-71
2021/03/09 02:58:06;;;;;;;10.70;6.05;;;;;;;;;;5053301;28;20276;-71
2021/03/09 03:00:32;;;;;;;12.30;6.57;;;;;;;;;;5052680;28;20249;-71
2021/03/09 03:03:00;;;;;;;15.90;7.90;;;;;;;;;;5052643;28;20597;-71
2021/03/09 03:05:27;;;;;;;12.88;6.18;;;;;;;;;;5052987;28;20545;-70
2021/03/09 03:07:53;;;;;;;9.35;6.22;;;;;;;;;;5052435;28;20632;-70
2021/03/09 03:10:20;;;;;;;13.90;6.70;;;;;;;;;;5052508;28;20202;-70
2021/03/09 03:12:47;;;;;;;12.95;7.82;;;;;;;;;;5052238;28;20530;-71
2021/03/09 03:15:13;;;;;;;8.63;5.20;;;;;;;;;;5052877;28;20221;-73
2021/03/09 03:17:40;;;;;;;12.95;8.05;;;;;;;;;;5052742;28;20237;-69
2021/03/09 03:20:08;;;;;;;11.02;6.88;;;;;;;;;;5052656;28;20653;-70
2021/03/09 03:22:37;;;;;;;20.08;6.95;;;;;;;;;;5052436;28;20269;-71
2021/03/09 03:25:04;;;;;;;13.52;7.13;;;;;;;;;;5052068;28;20355;-70
2021/03/09 03:27:30;;;;;;;15.10;7.07;;;;;;;;;;5052744;28;20189;-70
2021/03/09 03:29:56;;;;;;;12.48;7.40;;;;;;;;;;5052321;28;20308;-70
2021/03/09 03:32:22;;;;;;;13.43;7.13;;;;;;;;;;5052472;28;20239;-71
2021/03/09 03:34:48;;;;;;;18.35;7.40;;;;;;;;;;5052088;28;20541;-71
2021/03/09 03:37:15;;;;;;;16.55;8.55;;;;;;;;;;5051970;28;20188;-69
2021/03/09 03:39:41;;;;;;;14.57;7.22;;;;;;;;;;5052544;28;20320;-70
2021/03/09 03:42:08;;;;;;;13.43;7.10;;;;;;;;;;5051792;28;20296;-70
2021/03/09 03:44:34;;;;;;;16.70;7.32;;;;;;;;;;5051952;28;20204;-71
2021/03/09 03:47:00;;;;;;;16.00;8.00;;;;;;;;;;5052303;28;20185;-69
2021/03/09 03:49:26;;;;;;;16.77;7.80;;;;;;;;;;5052239;28;20304;-68
2021/03/09 03:51:55;;;;;;;18.70;7.40;;;;;;;;;;5053182;28;20205;-71
2021/03/09 03:54:26;;;;;;;17.75;7.68;;;;;;;;;;5056379;28;20615;-70
2021/03/09 03:56:56;;;;;;;16.90;7.00;;;;;;;;;;5055886;28;20277;-72
2021/03/09 03:59:24;;;;;;;15.45;7.90;;;;;;;;;;5056211;28;20181;-72
2021/03/09 04:01:51;;;;;;;13.55;7.15;;;;;;;;;;5056516;28;20178;-71
2021/03/09 04:04:17;;;;;;;12.50;7.05;;;;;;;;;;5056144;28;20205;-70
2021/03/09 04:06:44;;;;;;;15.35;8.13;;;;;;;;;;5055796;28;20190;-70
2021/03/09 04:09:11;;;;;;;17.50;7.82;;;;;;;;;;5055780;28;20651;-71
2021/03/09 04:11:38;;;;;;;14.52;7.38;;;;;;;;;;5055651;28;20248;-71
2021/03/09 04:14:05;;;;;;;13.63;7.40;;;;;;;;;;5055888;28;20189;-71
2021/03/09 04:16:31;;;;;;;15.38;6.97;;;;;;;;;;5055586;28;20216;-71
2021/03/09 04:18:59;;;;;;;16.30;8.27;;;;;;;;;;5055986;28;20620;-71
2021/03/09 04:21:26;;;;;;;15.80;7.00;;;;;;;;;;5056021;28;20211;-70
2021/03/09 04:23:52;;;;;;;15.48;6.93;;;;;;;;;;5055716;28;20693;-72
2021/03/09 04:26:18;;;;;;;13.63;6.80;;;;;;;;;;5055913;28;20202;-72
2021/03/09 04:28:45;;;;;;;16.73;9.05;;;;;;;;;;5055251;28;20697;-71
2021/03/09 04:31:12;;;;;;;14.05;7.47;;;;;;;;;;5055738;28;20295;-69
2021/03/09 04:33:38;;;;;;;12.20;8.05;;;;;;;;;;5055793;28;20201;-71
2021/03/09 04:36:05;;;;;;;12.20;7.82;;;;;;;;;;5055374;28;20316;-70
2021/03/09 04:38:31;;;;;;;11.68;8.05;;;;;;;;;;5055565;28;20190;-71
2021/03/09 04:40:57;;;;;;;17.48;8.75;;;;;;;;;;5055390;28;20182;-73
2021/03/09 04:43:23;;;;;;;16.75;8.02;;;;;;;;;;5055709;28;20287;-69
2021/03/09 04:45:49;;;;;;;14.70;7.30;;;;;;;;;;5055286;28;20693;-69
2021/03/09 04:48:15;;;;;;;19.83;9.20;;;;;;;;;;5055519;28;20489;-71
2021/03/09 04:50:44;;;;;;;20.17;8.90;;;;;;;;;;5055152;28;20523;-69
2021/03/09 04:53:09;;;;;;;16.00;7.63;;;;;;;;;;5055362;28;20546;-69
2021/03/09 04:55:35;;;;;;;14.83;8.20;;;;;;;;;;5055533;28;20205;-71
2021/03/09 04:58:01;;;;;;;17.52;8.27;;;;;;;;;;5055234;28;20428;-72
2021/03/09 05:00:28;;;;;;;16.70;9.70;;;;;;;;;;5055654;28;20224;-69
2021/03/09 05:02:54;;;;;;;17.45;10.98;;;;;;;;;;5054310;28;20458;-70
2021/03/09 05:05:22;;;;;;;15.57;8.05;;;;;;;;;;5055234;28;20243;-70
2021/03/09 05:07:48;;;;;;;16.08;9.30;;;;;;;;;;5055145;28;20196;-69
2021/03/09 05:10:14;;;;;;;12.27;6.75;;;;;;;;;;5055096;28;20231;-70
2021/03/09 05:12:40;;;;;;;15.90;8.88;;;;;;;;;;5055252;28;20235;-70
2021/03/09 05:15:07;;;;;;;13.82;7.90;;;;;;;;;;5054897;28;20197;-71
2021/03/09 05:17:33;;;;;;;18.98;9.02;;;;;;;;;;5054841;28;20590;-71
2021/03/09 05:19:59;;;;;;;19.58;10.27;;;;;;;;;;5054300;28;20226;-72
2021/03/09 05:22:26;;;;;;;26.08;11.10;;;;;;;;;;5054487;28;20204;-70
2021/03/09 05:24:52;;;;;;;16.95;8.38;;;;;;;;;;5054696;28;20272;-72
2021/03/09 05:27:18;;;;;;;14.83;8.10;;;;;;;;;;5054546;28;20188;-71
2021/03/09 05:29:44;;;;;;;59.92;16.58;;;;;;;;;;5054222;28;20505;-70
2021/03/09 05:32:10;;;;;;;12.90;6.28;;;;;;;;;;5054329;28;20190;-72
2021/03/09 05:34:36;;;;;;;18.53;8.63;;;;;;;;;;5054279;28;20264;-72
2021/03/09 05:37:02;;;;;;;16.90;8.85;;;;;;;;;;5054144;28;20432;-73
2021/03/09 05:39:29;;;;;;;17.53;8.70;;;;;;;;;;5053858;28;20205;-72
2021/03/09 05:41:55;;;;;;;21.67;7.60;;;;;;;;;;5053689;28;20436;-71
2021/03/09 05:44:21;;;;;;;18.27;8.30;;;;;;;;;;5054124;28;20608;-71
2021/03/09 05:46:47;;;;;;;20.70;8.77;;;;;;;;;;5053991;28;20190;-72
2021/03/09 05:49:13;;;;;;;23.20;10.13;;;;;;;;;;5053481;28;20192;-72
2021/03/09 05:51:39;;;;;;;17.92;8.00;;;;;;;;;;5053665;28;20487;-70
2021/03/09 05:54:05;;;;;;;15.43;8.15;;;;;;;;;;5053986;28;20194;-72
2021/03/09 05:56:32;;;;;;;20.48;8.93;;;;;;;;;;5053948;28;20217;-71
2021/03/09 05:58:58;;;;;;;17.90;7.80;;;;;;;;;;5053727;28;20208;-71
2021/03/09 06:01:24;;;;;;;26.40;11.02;;;;;;;;;;5053670;28;20235;-70
2021/03/09 06:03:50;;;;;;;19.37;8.17;;;;;;;;;;5053787;28;20204;-71
2021/03/09 06:06:16;;;;;;;9.65;6.55;;;;;;;;;;5053829;28;20452;-71
2021/03/09 06:08:42;;;;;;;14.83;8.27;;;;;;;;;;5053669;28;20642;-72
2021/03/09 06:11:12;;;;;;;11.88;8.18;;;;;;;;;;5053680;28;20463;-72
2021/03/09 06:13:38;;;;;;;20.45;8.82;;;;;;;;;;5052925;28;20232;-71
2021/03/09 06:16:05;;;;;;;16.95;7.30;;;;;;;;;;5053339;28;20198;-71
2021/03/09 06:18:30;;;;;;;17.45;9.68;;;;;;;;;;5053213;28;20189;-71
2021/03/09 06:21:13;;;;;;;16.83;8.93;;;;;;;;;;5053626;28;20237;-75
2021/03/09 06:23:39;;;;;;;16.05;9.05;;;;;;;;;;5052812;28;21021;-71
2021/03/09 06:26:26;;;;;;;16.75;8.10;;;;;;;;;;5053335;28;20277;-71
2021/03/09 06:29:06;;;;;;;17.60;8.48;;;;;;;;;;5052596;28;20212;-71
2021/03/09 06:31:32;;;;;;;15.65;9.80;;;;;;;;;;5053150;28;20578;-70
2021/03/09 06:34:19;;;;;;;29.00;8.55;;;;;;;;;;5053218;28;20647;-71
2021/03/09 06:37:00;;;;;;;22.98;10.48;;;;;;;;;;5052808;28;20624;-71
2021/03/09 06:39:41;;;;;;;24.13;10.57;;;;;;;;;;5053297;28;20288;-72
2021/03/09 06:42:07;;;;;;;18.63;9.20;;;;;;;;;;5053070;28;20575;-72
2021/03/09 06:44:33;;;;;;;17.73;9.05;;;;;;;;;;5052733;28;20199;-71
2021/03/09 06:46:59;;;;;;;26.13;9.48;;;;;;;;;;5052560;28;20189;-71
2021/03/09 06:49:25;;;;;;;23.73;11.18;;;;;;;;;;5052989;28;20190;-71
2021/03/09 06:51:51;;;;;;;16.83;8.63;;;;;;;;;;5052575;28;20303;-71
2021/03/09 06:54:17;;;;;;;16.55;9.85;;;;;;;;;;5052418;28;20479;-71
2021/03/09 06:56:44;;;;;;;21.35;9.60;;;;;;;;;;5052328;28;20233;-71
2021/03/09 06:59:17;;;;;;;20.33;8.88;;;;;;;;;;5052451;28;20206;-72
2021/03/09 07:01:43;;;;;;;17.08;8.90;;;;;;;;;;5051862;28;20177;-71
2021/03/09 07:04:20;;;;;;;19.10;10.38;;;;;;;;;;5052655;28;20262;-71
2021/03/09 07:06:46;;;;;;;15.40;7.50;;;;;;;;;;5052775;28;20320;-71
2021/03/09 07:09:12;;;;;;;31.38;10.15;;;;;;;;;;5052079;28;20190;-72
2021/03/09 07:11:38;;;;;;;23.48;10.27;;;;;;;;;;5052415;28;20309;-70
2021/03/09 07:14:04;;;;;;;20.98;10.93;;;;;;;;;;5052275;28;20194;-71
2021/03/09 07:16:32;;;;;;;18.83;9.25;;;;;;;;;;5052316;28;20244;-71
2021/03/09 07:18:59;;;;;;;18.20;10.00;;;;;;;;;;5052749;28;20199;-72
2021/03/09 07:21:27;;;;;;;19.67;10.88;;;;;;;;;;5052556;28;20206;-73
2021/03/09 07:23:53;;;;;;;24.88;11.57;;;;;;;;;;5051870;28;20268;-71
2021/03/09 07:26:19;;;;;;;19.70;9.82;;;;;;;;;;5049695;28;20195;-71
2021/03/09 07:28:47;;;;;;;26.27;12.25;;;;;;;;;;5051758;28;20222;-73
2021/03/09 07:31:13;;;;;;;17.30;9.98;;;;;;;;;;5051890;28;20216;-71
2021/03/09 07:33:39;;;;;;;18.15;10.20;;;;;;;;;;5052332;28;20522;-72
2021/03/09 07:36:07;;;;;;;23.48;10.05;;;;;;;;;;5051971;28;20629;-71
2021/03/09 07:38:33;;;;;;;23.88;10.02;;;;;;;;;;5052165;28;20230;-71
2021/03/09 07:40:59;;;;;;;17.33;10.27;;;;;;;;;;5051979;28;20210;-71
2021/03/09 07:43:26;;;;;;;21.70;9.50;;;;;;;;;;5052116;28;20208;-72
2021/03/09 07:45:52;;;;;;;25.40;11.30;;;;;;;;;;5051261;28;20192;-70
2021/03/09 07:48:18;;;;;;;23.17;11.50;;;;;;;;;;5047497;28;20561;-72
2021/03/09 07:50:45;;;;;;;26.30;11.48;;;;;;;;;;5051456;28;20213;-71
2021/03/09 07:53:13;;;;;;;15.95;10.02;;;;;;;;;;5051699;28;20199;-70
2021/03/09 07:55:40;;;;;;;22.88;11.68;;;;;;;;;;5051665;28;20209;-71
2021/03/09 07:58:16;;;;;;;21.90;13.18;;;;;;;;;;5051313;28;20203;-73
2021/03/09 08:00:50;;;;;;;26.58;12.73;;;;;;;;;;5051392;28;20630;-71
2021/03/09 08:03:20;;;;;;;24.45;12.05;;;;;;;;;;5051589;28;20199;-71
2021/03/09 08:05:50;;;;;;;24.35;10.00;;;;;;;;;;5049053;28;20239;-73
2021/03/09 08:08:31;;;;;;;23.92;12.02;;;;;;;;;;5052000;28;20516;-71
2021/03/09 08:10:58;;;;;;;24.92;9.77;;;;;;;;;;5051612;28;20285;-70
2021/03/09 08:13:25;;;;;;;25.90;11.57;;;;;;;;;;5051895;28;20234;-73
2021/03/09 08:15:51;;;;;;;16.95;9.15;;;;;;;;;;5052060;28;20189;-72
2021/03/09 08:18:35;;;;;;;21.52;8.82;;;;;;;;;;5051321;28;20546;-72
2021/03/09 08:21:01;;;;;;;16.15;10.18;;;;;;;;;;5049601;28;20186;-71
2021/03/09 08:23:46;;;;;;;29.90;12.77;;;;;;;;;;5051288;28;20227;-71
2021/03/09 08:26:41;;;;;;;22.05;10.95;;;;;;;;;;5050909;28;20725;-72
2021/03/09 08:29:22;;;;;;;25.83;12.30;;;;;;;;;;5049621;28;20198;-73
2021/03/09 08:31:49;;;;;;;22.15;11.95;;;;;;;;;;5051321;28;20230;-70
2021/03/09 08:34:21;;;;;;;17.17;9.48;;;;;;;;;;5047519;28;20255;-73
2021/03/09 08:36:47;;;;;;;33.22;12.38;;;;;;;;;;5050604;28;20218;-72
2021/03/09 08:39:16;;;;;;;23.03;12.03;;;;;;;;;;5054443;28;20283;-73
2021/03/09 08:41:56;;;;;;;25.83;13.65;;;;;;;;;;5054593;28;20521;-73
2021/03/09 08:44:23;;;;;;;32.47;14.93;;;;;;;;;;5051276;28;20230;-72
2021/03/09 08:46:59;;;;;;;33.80;17.05;;;;;;;;;;5053765;28;20204;-72
2021/03/09 08:49:40;;;;;;;20.70;12.77;;;;;;;;;;5051012;28;20642;-71
2021/03/09 08:52:07;;;;;;;34.35;16.83;;;;;;;;;;5050220;28;20224;-72
2021/03/09 08:54:38;;;;;;;27.40;16.42;;;;;;;;;;5054350;28;20185;-73
2021/03/09 08:57:05;;;;;;;31.95;16.65;;;;;;;;;;5053126;28;20612;-72
2021/03/09 08:59:32;;;;;;;28.83;14.63;;;;;;;;;;5053892;28;20587;-71
2021/03/09 09:02:06;;;;;;;28.65;14.05;;;;;;;;;;5053823;28;20286;-71
2021/03/09 09:04:32;;;;;;;25.67;14.32;;;;;;;;;;5053462;28;20201;-71
2021/03/09 09:06:58;;;;;;;25.40;12.15;;;;;;;;;;5053839;28;20192;-73
2021/03/09 09:09:31;;;;;;;25.42;13.43;;;;;;;;;;5054129;28;20185;-71
2021/03/09 09:11:57;;;;;;;20.08;11.50;;;;;;;;;;5053452;28;20224;-71
2021/03/09 09:14:23;;;;;;;20.20;9.63;;;;;;;;;;5052752;28;20225;-71
2021/03/09 09:16:49;;;;;;;24.55;9.93;;;;;;;;;;5054654;28;20247;-73
2021/03/09 09:19:17;;;;;;;17.55;10.23;;;;;;;;;;5054205;28;20299;-72
2021/03/09 09:21:44;;;;;;;20.33;8.65;;;;;;;;;;5053731;28;20619;-71
2021/03/09 09:24:20;;;;;;;16.50;9.27;;;;;;;;;;5053276;28;20201;-73
2021/03/09 09:26:46;;;;;;;13.98;7.28;;;;;;;;;;5050023;28;20212;-73
2021/03/09 09:29:12;;;;;;;14.35;7.32;;;;;;;;;;5053245;28;20711;-73
2021/03/09 09:31:38;;;;;;;16.38;9.02;;;;;;;;;;5053301;28;20201;-72
2021/03/09 09:34:05;;;;;;;14.20;6.97;;;;;;;;;;5053869;28;20632;-72
2021/03/09 09:36:32;;;;;;;14.60;6.97;;;;;;;;;;5053689;28;20233;-74
2021/03/09 09:38:58;;;;;;;16.23;7.20;;;;;;;;;;5052985;28;20207;-74
2021/03/09 09:41:24;;;;;;;14.95;7.13;;;;;;;;;;5050859;28;20226;-73
2021/03/09 09:43:51;;;;;;;19.42;8.70;;;;;;;;;;5048630;28;20239;-74
2021/03/09 09:46:19;;;;;;;18.30;8.90;;;;;;;;;;5043002;28;20699;-73
2021/03/09 09:48:46;;;;;;;16.58;8.00;;;;;;;;;;5045240;28;20197;-74
2021/03/09 09:51:13;;;;;;;13.00;6.85;;;;;;;;;;5044810;28;20739;-73
2021/03/09 09:53:41;;;;;;;12.38;6.28;;;;;;;;;;5043879;28;20218;-74
2021/03/09 09:56:08;;;;;;;12.23;7.40;;;;;;;;;;5041530;28;20244;-76
2021/03/09 09:58:41;;;;;;;18.20;8.82;;;;;;;;;;5044253;28;20228;-76
2021/03/09 10:01:07;;;;;;;12.20;7.88;;;;;;;;;;5046129;28;20243;-75
2021/03/09 10:03:33;;;;;;;12.38;6.28;;;;;;;;;;5046349;28;20251;-74
2021/03/09 10:06:15;;;;;;;12.20;7.03;;;;;;;;;;5044747;28;20206;-75
2021/03/09 10:08:43;;;;;;;10.52;6.10;;;;;;;;;;5042918;28;20622;-75
2021/03/09 10:11:10;;;;;;;8.55;5.00;;;;;;;;;;5043033;28;20233;-76
2021/03/09 10:13:36;;;;;;;7.43;4.60;;;;;;;;;;5042417;28;20198;-74
2021/03/09 10:16:03;;;;;;;10.05;4.93;;;;;;;;;;5043011;28;20190;-73
2021/03/09 10:18:30;;;;;;;7.90;3.83;;;;;;;;;;5044091;28;20190;-73
2021/03/09 10:21:00;;;;;;;11.60;4.20;;;;;;;;;;5042252;28;20285;-75
2021/03/09 10:23:26;;;;;;;5.22;3.40;;;;;;;;;;5052682;28;20342;-73
2021/03/09 10:25:57;;;;;;;9.70;4.68;;;;;;;;;;5052824;28;20194;-75
2021/03/09 10:28:25;;;;;;;3.85;2.53;;;;;;;;;;5052976;28;20292;-73
2021/03/09 10:30:51;;;;;;;5.68;3.33;;;;;;;;;;5051893;28;20731;-74
2021/03/09 10:33:17;;;;;;;6.38;3.05;;;;;;;;;;5047462;28;59896;-75
2021/03/09 10:36:02;;;;;;;4.78;3.08;;;;;;;;;;5052325;28;20345;-75
2021/03/09 10:38:28;;;;;;;6.30;3.28;;;;;;;;;;5050196;28;20191;-74
2021/03/09 10:40:54;;;;;;;8.05;5.10;;;;;;;;;;5052574;28;20186;-74
2021/03/09 10:43:35;;;;;;;10.02;3.78;;;;;;;;;;5052592;28;20634;-74
2021/03/09 10:46:02;;;;;;;6.93;4.15;;;;;;;;;;5051540;28;20662;-73
2021/03/09 10:48:28;;;;;;;6.65;3.95;;;;;;;;;;5052672;28;20197;-75
2021/03/09 10:50:54;;;;;;;6.60;3.60;;;;;;;;;;5051869;28;20208;-73
2021/03/09 10:53:20;;;;;;;6.27;3.07;;;;;;;;;;5052125;28;20197;-73
2021/03/09 10:55:46;;;;;;;6.32;3.35;;;;;;;;;;5051813;28;20444;-73
2021/03/09 10:58:12;;;;;;;6.80;3.67;;;;;;;;;;5051222;28;20251;-76
2021/03/09 11:00:38;;;;;;;7.32;4.47;;;;;;;;;;5052254;28;20232;-75
2021/03/09 11:03:05;;;;;;;4.10;3.30;;;;;;;;;;5051968;28;20566;-74
2021/03/09 11:05:31;;;;;;;5.90;3.50;;;;;;;;;;5052881;28;20236;-75
2021/03/09 11:07:57;;;;;;;4.55;3.95;;;;;;;;;;5052620;28;20207;-75
2021/03/09 11:10:23;;;;;;;6.20;3.75;;;;;;;;;;5052899;28;20653;-73
2021/03/09 11:12:49;;;;;;;7.60;4.10;;;;;;;;;;5052946;28;20210;-73
2021/03/09 11:15:16;;;;;;;5.60;3.63;;;;;;;;;;5052336;28;20196;-74
2021/03/09 11:17:42;;;;;;;4.57;3.33;;;;;;;;;;5052403;28;20206;-74
2021/03/09 11:20:10;;;;;;;6.15;3.35;;;;;;;;;;5051826;28;20271;-74
2021/03/09 11:22:36;;;;;;;5.25;3.45;;;;;;;;;;5052535;28;20245;-75
2021/03/09 11:25:02;;;;;;;8.25;4.20;;;;;;;;;;5052099;28;20212;-73
2021/03/09 11:27:28;;;;;;;8.25;4.20;;;;;;;;;;5051587;28;20200;-73
2021/03/09 11:29:54;;;;;;;3.60;2.50;;;;;;;;;;5052519;28;20618;-75
2021/03/09 11:32:21;;;;;;;7.57;4.20;;;;;;;;;;5051597;28;20319;-76
2021/03/09 11:34:47;;;;;;;6.80;4.45;;;;;;;;;;5051586;28;20198;-74
2021/03/09 11:37:13;;;;;;;5.20;3.93;;;;;;;;;;5052014;28;20639;-75
2021/03/09 11:39:39;;;;;;;7.05;4.80;;;;;;;;;;5051599;28;20590;-75
2021/03/09 11:42:06;;;;;;;7.63;4.27;;;;;;;;;;5051839;28;20184;-73
2021/03/09 11:44:32;;;;;;;7.65;4.97;;;;;;;;;;5051976;28;20481;-74
2021/03/09 11:46:58;;;;;;;3.53;2.17;;;;;;;;;;5052004;28;20202;-75
2021/03/09 11:49:24;;;;;;;5.32;2.70;;;;;;;;;;5051977;28;20628;-74
2021/03/09 11:51:50;;;;;;;6.78;4.07;;;;;;;;;;5051065;28;20209;-73
2021/03/09 11:54:17;;;;;;;7.20;4.35;;;;;;;;;;5051575;28;20201;-74
2021/03/09 11:56:43;;;;;;;9.50;6.20;;;;;;;;;;5052095;28;20568;-75
2021/03/09 11:59:09;;;;;;;8.27;4.73;;;;;;;;;;5051751;28;20208;-75
2021/03/09 12:01:35;;;;;;;7.45;3.80;;;;;;;;;;5051093;28;20476;-75
2021/03/09 12:04:01;;;;;;;5.38;3.85;;;;;;;;;;5051440;28;20221;-74
2021/03/09 12:06:27;;;;;;;5.97;4.07;;;;;;;;;;5051685;28;20247;-76
2021/03/09 12:08:53;;;;;;;11.03;5.47;;;;;;;;;;5051616;28;20186;-73
2021/03/09 12:11:20;;;;;;;6.57;4.60;;;;;;;;;;5051674;28;20830;-74
2021/03/09 12:13:46;;;;;;;7.82;4.78;;;;;;;;;;5055102;28;20981;-75
2021/03/09 12:16:12;;;;;;;9.35;4.50;;;;;;;;;;5055603;28;20190;-73
2021/03/09 12:18:38;;;;;;;9.27;4.80;;;;;;;;;;5055307;28;20209;-73
2021/03/09 12:21:05;;;;;;;9.18;4.47;;;;;;;;;;5056111;28;20980;-76
2021/03/09 12:23:31;;;;;;;6.00;4.28;;;;;;;;;;5055269;28;20203;-74
2021/03/09 12:25:57;;;;;;;14.10;5.15;;;;;;;;;;5055832;28;20207;-75
2021/03/09 12:28:24;;;;;;;10.27;5.22;;;;;;;;;;5055368;28;20226;-76
2021/03/09 12:30:50;;;;;;;10.60;5.78;;;;;;;;;;5055405;28;20293;-75
2021/03/09 12:33:16;;;;;;;10.93;6.10;;;;;;;;;;5055664;28;20221;-75
2021/03/09 12:35:43;;;;;;;6.85;4.50;;;;;;;;;;5055521;28;20484;-75
2021/03/09 12:38:09;;;;;;;13.60;5.68;;;;;;;;;;5055472;28;20209;-75
2021/03/09 12:40:35;;;;;;;11.13;5.90;;;;;;;;;;5054842;28;20207;-73
2021/03/09 12:43:01;;;;;;;12.48;6.00;;;;;;;;;;5054416;28;20205;-73
2021/03/09 12:45:28;;;;;;;10.43;4.60;;;;;;;;;;5055228;28;20189;-74
2021/03/09 12:47:54;;;;;;;9.20;6.53;;;;;;;;;;5055154;28;20215;-76
2021/03/09 12:50:21;;;;;;;8.25;4.95;;;;;;;;;;5054870;28;20294;-75
2021/03/09 12:52:47;;;;;;;13.35;5.00;;;;;;;;;;5055090;28;20221;-74
2021/03/09 12:55:13;;;;;;;6.85;4.50;;;;;;;;;;5054813;28;20204;-74
2021/03/09 12:57:39;;;;;;;9.65;5.13;;;;;;;;;;5054878;28;20193;-75
2021/03/09 13:00:06;;;;;;;5.88;3.53;;;;;;;;;;5055376;28;20652;-76
2021/03/09 13:02:33;;;;;;;5.40;4.05;;;;;;;;;;5054770;28;20269;-76
2021/03/09 13:04:59;;;;;;;9.13;6.15;;;;;;;;;;5053989;28;20189;-75
2021/03/09 13:07:25;;;;;;;10.45;5.75;;;;;;;;;;5055227;28;20228;-74
2021/03/09 13:09:51;;;;;;;7.60;5.18;;;;;;;;;;5055221;28;20233;-74
2021/03/09 13:12:18;;;;;;;3.97;3.30;;;;;;;;;;5054948;28;20228;-74
2021/03/09 13:14:44;;;;;;;6.60;3.28;;;;;;;;;;5054576;28;20236;-74
2021/03/09 13:17:10;;;;;;;5.43;3.28;;;;;;;;;;5054900;28;20323;-76
2021/03/09 13:19:37;;;;;;;5.80;4.55;;;;;;;;;;5054095;28;20209;-74
2021/03/09 13:22:04;;;;;;;7.57;3.92;;;;;;;;;;5054907;28;20197;-76
2021/03/09 13:24:30;;;;;;;6.30;3.65;;;;;;;;;;5053127;28;20258;-74
2021/03/09 13:26:56;;;;;;;10.00;4.45;;;;;;;;;;5054408;28;20287;-75
2021/03/09 13:29:22;;;;;;;9.00;4.78;;;;;;;;;;5054114;28;20208;-73
2021/03/09 13:31:48;;;;;;;10.13;4.93;;;;;;;;;;5053501;28;20245;-74
2021/03/09 13:34:15;;;;;;;13.05;5.00;;;;;;;;;;5053911;28;20220;-74
2021/03/09 13:36:42;;;;;;;13.48;4.75;;;;;;;;;;5054335;28;20859;-74
2021/03/09 13:39:08;;;;;;;9.98;5.20;;;;;;;;;;5054630;28;20655;-74
2021/03/09 13:41:34;;;;;;;4.97;3.00;;;;;;;;;;5054548;28;20201;-73
2021/03/09 13:44:00;;;;;;;7.18;4.30;;;;;;;;;;5054456;28;20228;-74
2021/03/09 13:46:26;;;;;;;5.05;3.05;;;;;;;;;;5053982;28;20282;-75
2021/03/09 13:48:53;;;;;;;4.88;2.60;;;;;;;;;;5052328;28;20205;-74
2021/03/09 13:51:19;;;;;;;18.23;5.30;;;;;;;;;;5052456;28;20689;-73
2021/03/09 13:53:46;;;;;;;12.02;6.43;;;;;;;;;;5053973;28;20205;-74
2021/03/09 13:56:12;;;;;;;9.57;5.70;;;;;;;;;;5053796;28;20207;-71
2021/03/09 13:58:39;;;;;;;7.25;3.88;;;;;;;;;;5053598;28;20194;-74
2021/03/09 14:01:05;;;;;;;8.07;5.40;;;;;;;;;;5053701;28;20208;-76
2021/03/09 14:03:31;;;;;;;5.65;4.30;;;;;;;;;;5053694;28;20237;-75
2021/03/09 14:05:57;;;;;;;9.57;5.32;;;;;;;;;;5053518;28;20205;-75
2021/03/09 14:08:23;;;;;;;9.35;4.60;;;;;;;;;;5053423;28;20295;-74
2021/03/09 14:10:52;;;;;;;10.40;5.22;;;;;;;;;;5052830;28;20202;-74
2021/03/09 14:13:18;;;;;;;9.65;5.88;;;;;;;;;;5053720;28;20202;-75
2021/03/09 14:15:44;;;;;;;12.97;6.07;;;;;;;;;;5053921;28;20204;-75
2021/03/09 14:18:10;;;;;;;8.43;4.88;;;;;;;;;;5053345;28;20456;-73
2021/03/09 14:20:36;;;;;;;15.73;6.85;;;;;;;;;;5052206;28;20197;-75
2021/03/09 14:23:02;;;;;;;12.50;6.30;;;;;;;;;;5051147;28;20197;-75
2021/03/09 14:25:29;;;;;;;10.38;6.00;;;;;;;;;;5053088;28;20205;-73
2021/03/09 14:27:56;;;;;;;12.68;5.15;;;;;;;;;;5053439;28;20316;-73
2021/03/09 14:30:23;;;;;;;10.70;5.68;;;;;;;;;;5053561;28;20205;-73
2021/03/09 14:32:49;;;;;;;10.02;5.00;;;;;;;;;;5053172;28;20229;-74